Time;durP1;ratioP1;P1;durP2;ratioP2;P2;SDS_P1;SDS_P2;PMS_P1;PMS_P2;Temp;Humidity;BMP_temperature;BMP_pressure;BME280_temperature;BME280_humidity;BME280_pressure;Samples;Min_cycle;Max_cycle;Signal;HPM_P1;HPM_P2
2023/01/21 00:02:10;;;;;;;30.23;20.87;;;2.90;99.90;;;;;;5064635;28;20252;-30
2023/01/21 00:04:40;;;;;;;30.77;21.47;;;2.90;99.90;;;;;;5058932;28;20216;-30
2023/01/21 00:07:07;;;;;;;28.00;20.97;;;2.90;99.90;;;;;;5047522;28;20200;-30
2023/01/21 00:09:35;;;;;;;32.30;22.37;;;2.90;99.90;;;;;;5065341;28;20203;-31
2023/01/21 00:12:02;;;;;;;32.50;22.77;;;2.80;99.90;;;;;;5063812;28;20203;-30
2023/01/21 00:14:30;;;;;;;33.03;22.63;;;2.80;99.90;;;;;;5065295;28;20220;-30
2023/01/21 00:17:00;;;;;;;31.97;22.40;;;2.80;99.90;;;;;;5065049;28;20234;-30
2023/01/21 00:19:29;;;;;;;26.77;20.50;;;2.80;99.90;;;;;;5065390;28;20301;-30
2023/01/21 00:21:58;;;;;;;28.83;20.90;;;2.80;99.90;;;;;;5065441;28;20779;-30
2023/01/21 00:24:30;;;;;;;31.57;22.00;;;2.80;99.90;;;;;;5062728;28;20311;-31
2023/01/21 00:26:59;;;;;;;29.37;21.23;;;2.80;99.90;;;;;;5065023;28;20200;-30
2023/01/21 00:29:26;;;;;;;31.03;21.80;;;2.80;99.90;;;;;;5065341;28;20634;-31
2023/01/21 00:31:54;;;;;;;29.73;21.23;;;2.70;99.90;;;;;;5064291;28;20199;-30
2023/01/21 00:34:21;;;;;;;30.80;21.03;;;2.70;99.90;;;;;;5065531;28;20295;-30
2023/01/21 00:36:50;;;;;;;29.13;21.33;;;2.70;99.90;;;;;;5065048;28;20211;-31
2023/01/21 00:39:20;;;;;;;32.40;22.70;;;2.60;99.90;;;;;;5065565;28;20207;-30
2023/01/21 00:41:47;;;;;;;31.17;21.57;;;2.60;99.90;;;;;;5055131;28;20299;-30
2023/01/21 00:44:15;;;;;;;29.03;21.43;;;2.60;99.90;;;;;;5045603;28;20270;-30
2023/01/21 00:46:44;;;;;;;30.73;22.33;;;2.60;99.90;;;;;;5044458;28;20295;-31
2023/01/21 00:49:11;;;;;;;30.07;21.27;;;2.60;99.90;;;;;;5045530;28;20204;-30
2023/01/21 00:51:38;;;;;;;33.47;22.77;;;2.60;99.90;;;;;;5044759;28;20326;-31
2023/01/21 00:54:08;;;;;;;31.67;21.83;;;2.50;99.90;;;;;;5044971;28;20298;-31
2023/01/21 00:56:37;;;;;;;30.70;21.17;;;2.50;99.90;;;;;;5045317;28;20214;-30
2023/01/21 00:59:07;;;;;;;30.67;21.43;;;2.50;99.90;;;;;;5054215;28;20207;-30
2023/01/21 01:01:37;;;;;;;34.23;22.47;;;2.50;99.90;;;;;;5061076;28;20776;-31
2023/01/21 01:04:09;;;;;;;31.50;21.77;;;2.50;99.90;;;;;;5063517;28;20205;-30
2023/01/21 01:06:37;;;;;;;30.63;22.00;;;2.50;99.90;;;;;;5063991;28;20211;-31
2023/01/21 01:09:04;;;;;;;35.17;22.20;;;2.50;99.90;;;;;;5065023;28;20249;-31
2023/01/21 01:11:33;;;;;;;34.40;22.67;;;2.50;99.90;;;;;;5068698;28;20206;-31
2023/01/21 01:14:01;;;;;;;32.90;23.30;;;2.50;99.90;;;;;;5067112;28;20211;-30
2023/01/21 01:16:31;;;;;;;37.43;23.67;;;2.40;99.90;;;;;;5068388;28;20221;-30
2023/01/21 01:19:02;;;;;;;37.60;25.00;;;2.40;99.90;;;;;;5067116;28;20219;-30
2023/01/21 01:21:29;;;;;;;34.00;22.57;;;2.40;99.90;;;;;;5048494;28;20256;-30
2023/01/21 01:24:00;;;;;;;33.57;23.37;;;2.40;99.90;;;;;;5059056;28;20265;-30
2023/01/21 01:26:30;;;;;;;33.97;22.93;;;2.40;99.90;;;;;;5068745;28;20308;-30
2023/01/21 01:29:01;;;;;;;35.27;22.57;;;2.30;99.90;;;;;;5067620;28;20230;-30
2023/01/21 01:31:31;;;;;;;38.70;24.47;;;2.40;99.90;;;;;;5068078;28;20678;-30
2023/01/21 01:34:01;;;;;;;36.50;23.40;;;2.30;99.90;;;;;;5067755;28;20574;-30
2023/01/21 01:36:30;;;;;;;34.90;23.63;;;2.30;99.90;;;;;;5067560;28;20213;-30
2023/01/21 01:38:58;;;;;;;40.70;25.07;;;2.30;99.90;;;;;;5069195;28;20203;-30
2023/01/21 01:41:28;;;;;;;36.37;23.13;;;2.30;99.90;;;;;;5068791;28;20714;-30
2023/01/21 01:44:23;;;;;;;36.40;24.83;;;2.30;99.90;;;;;;5062165;28;20208;-30
2023/01/21 01:46:50;;;;;;;39.90;26.13;;;2.20;99.90;;;;;;5047972;28;20266;-30
2023/01/21 01:49:23;;;;;;;37.10;25.37;;;2.20;99.90;;;;;;5063281;28;20243;-30
2023/01/21 01:52:00;;;;;;;36.20;23.87;;;2.20;99.90;;;;;;5067377;28;20238;-30
2023/01/21 01:54:52;;;;;;;40.57;25.80;;;2.20;99.90;;;;;;5050862;28;20612;-30
2023/01/21 01:57:24;;;;;;;31.43;22.23;;;2.20;99.90;;;;;;5064816;28;20643;-30
2023/01/21 01:59:54;;;;;;;39.10;24.77;;;2.20;99.90;;;;;;5059365;28;20211;-30
2023/01/21 02:02:21;;;;;;;44.27;26.70;;;2.20;99.90;;;;;;5054818;28;20246;-30
2023/01/21 02:04:56;;;;;;;38.13;25.73;;;2.20;99.90;;;;;;5050281;28;20212;-30
2023/01/21 02:07:27;;;;;;;46.07;28.33;;;2.20;99.90;;;;;;5055138;28;20257;-30
2023/01/21 02:09:55;;;;;;;38.00;26.77;;;2.20;99.90;;;;;;5046266;28;20204;-30
2023/01/21 02:12:22;;;;;;;43.93;26.63;;;2.20;99.90;;;;;;5047674;28;20238;-30
2023/01/21 02:14:50;;;;;;;40.03;24.80;;;2.10;99.90;;;;;;5047961;28;20215;-30
2023/01/21 02:17:29;;;;;;;46.90;26.87;;;2.20;99.90;;;;;;5050199;28;20708;-30
2023/01/21 02:20:28;;;;;;;38.77;26.23;;;2.10;99.90;;;;;;5052375;28;20199;-30
2023/01/21 02:23:05;;;;;;;42.43;27.07;;;2.10;99.90;;;;;;5051128;28;20223;-30
2023/01/21 02:25:44;;;;;;;44.90;28.37;;;2.10;99.90;;;;;;5048040;28;20231;-30
2023/01/21 02:28:25;;;;;;;45.83;28.60;;;2.10;99.90;;;;;;5047621;28;20200;-30
2023/01/21 02:31:13;;;;;;;46.37;28.27;;;2.10;99.90;;;;;;5048254;28;20247;-30
2023/01/21 02:34:07;;;;;;;43.60;27.83;;;2.10;99.90;;;;;;5047079;28;20227;-31
2023/01/21 02:36:42;;;;;;;41.90;26.87;;;2.10;99.90;;;;;;5047781;28;20232;-30
2023/01/21 02:39:43;;;;;;;43.40;27.00;;;2.00;99.90;;;;;;5047522;28;20228;-30
2023/01/21 02:42:38;;;;;;;44.50;27.70;;;2.00;99.90;;;;;;5048164;28;20726;-30
2023/01/21 02:45:09;;;;;;;45.87;28.67;;;2.00;99.90;;;;;;5058893;28;20188;-30
2023/01/21 02:48:12;;;;;;;41.90;26.50;;;2.00;99.90;;;;;;5065897;28;20206;-31
2023/01/21 02:50:51;;;;;;;48.17;28.60;;;2.00;99.90;;;;;;5067303;28;20501;-30
2023/01/21 02:53:32;;;;;;;44.77;28.97;;;2.00;99.90;;;;;;5054566;28;20240;-31
2023/01/21 02:56:22;;;;;;;42.63;27.33;;;2.00;99.90;;;;;;5067660;28;20622;-31
2023/01/21 02:59:01;;;;;;;41.57;28.13;;;2.00;99.90;;;;;;5048655;28;20311;-31
2023/01/21 03:01:59;;;;;;;44.17;28.07;;;2.00;99.90;;;;;;5045671;28;20722;-31
2023/01/21 03:05:07;;;;;;;45.67;29.47;;;2.00;99.90;;;;;;5047718;28;20691;-31
2023/01/21 03:07:42;;;;;;;42.93;28.03;;;2.00;99.90;;;;;;5067411;28;20253;-31
2023/01/21 03:10:21;;;;;;;48.33;29.07;;;2.00;99.90;;;;;;5065295;28;20208;-31
2023/01/21 03:13:04;;;;;;;48.13;29.90;;;2.00;99.90;;;;;;5065765;28;20207;-31
2023/01/21 03:18:43;;;;;;;45.47;29.83;;;2.00;99.90;;;;;;5065541;28;20658;-31
2023/01/21 03:21:15;;;;;;;50.33;30.70;;;2.00;99.90;;;;;;5066211;28;20223;-31
2023/01/21 03:23:48;;;;;;;50.63;29.90;;;1.90;99.90;;;;;;5066235;28;20199;-31
2023/01/21 03:26:22;;;;;;;47.33;28.20;;;1.90;99.90;;;;;;5066969;28;20311;-31
2023/01/21 03:28:53;;;;;;;51.30;30.13;;;1.90;99.90;;;;;;5066863;28;20575;-31
2023/01/21 03:31:27;;;;;;;47.67;29.13;;;1.90;99.90;;;;;;5060228;28;20200;-31
2023/01/21 03:34:02;;;;;;;49.03;30.90;;;1.90;99.90;;;;;;5056562;28;20204;-31
2023/01/21 03:36:54;;;;;;;49.67;30.63;;;1.90;99.90;;;;;;5065955;28;20213;-31
2023/01/21 03:39:42;;;;;;;50.87;30.77;;;1.90;99.90;;;;;;5066070;28;20199;-31
2023/01/21 03:42:10;;;;;;;48.63;28.83;;;1.90;99.90;;;;;;5065809;28;20223;-31
2023/01/21 03:44:38;;;;;;;50.17;29.20;;;1.90;99.90;;;;;;5064951;28;20254;-31
2023/01/21 03:47:19;;;;;;;48.53;31.37;;;1.90;99.90;;;;;;5055885;28;20193;-31
2023/01/21 03:49:52;;;;;;;50.40;32.13;;;1.90;99.90;;;;;;5065090;28;20685;-31
2023/01/21 03:52:23;;;;;;;52.83;31.33;;;1.90;99.90;;;;;;5065890;28;20242;-31
2023/01/21 03:54:51;;;;;;;52.30;31.90;;;1.90;99.90;;;;;;5066207;28;20257;-31
2023/01/21 03:57:18;;;;;;;54.17;30.97;;;1.90;99.90;;;;;;5064807;28;20454;-31
2023/01/21 03:59:48;;;;;;;52.13;31.30;;;1.80;99.90;;;;;;5066166;28;20298;-31
2023/01/21 04:02:18;;;;;;;52.97;32.83;;;1.80;99.90;;;;;;5065216;28;20338;-31
2023/01/21 04:04:51;;;;;;;53.63;32.03;;;1.80;99.90;;;;;;5065225;28;20204;-31
2023/01/21 04:07:21;;;;;;;55.60;32.17;;;1.80;99.90;;;;;;5064773;28;20214;-31
2023/01/21 04:09:49;;;;;;;53.93;33.50;;;1.80;99.90;;;;;;5065868;28;20245;-31
2023/01/21 04:12:16;;;;;;;54.17;32.83;;;1.80;99.90;;;;;;5066144;28;20204;-31
2023/01/21 04:14:46;;;;;;;65.27;35.23;;;1.70;99.90;;;;;;5066334;28;20297;-31
2023/01/21 04:17:16;;;;;;;54.63;32.37;;;1.70;99.90;;;;;;5063890;28;20637;-31
2023/01/21 04:19:45;;;;;;;56.17;32.93;;;1.70;99.90;;;;;;5064384;28;20293;-31
2023/01/21 04:22:15;;;;;;;55.43;31.93;;;1.70;99.90;;;;;;5064408;28;20235;-31
2023/01/21 04:24:44;;;;;;;54.07;31.47;;;1.70;99.90;;;;;;5066125;28;20634;-31
2023/01/21 04:27:14;;;;;;;51.30;31.13;;;1.70;99.90;;;;;;5065405;28;20643;-31
2023/01/21 04:29:45;;;;;;;52.20;32.43;;;1.70;99.90;;;;;;5066232;28;20195;-31
2023/01/21 04:32:12;;;;;;;59.27;32.13;;;1.60;99.90;;;;;;5065088;28;20195;-31
2023/01/21 04:34:42;;;;;;;56.20;31.07;;;1.60;99.90;;;;;;5065760;28;20195;-31
2023/01/21 04:37:11;;;;;;;54.90;32.07;;;1.60;99.90;;;;;;5061628;28;20588;-31
2023/01/21 04:39:40;;;;;;;56.57;34.17;;;1.60;99.90;;;;;;5064776;28;20690;-31
2023/01/21 04:42:12;;;;;;;57.47;34.77;;;1.60;99.90;;;;;;5066107;28;20278;-31
2023/01/21 04:44:44;;;;;;;53.43;32.57;;;1.60;99.90;;;;;;5066810;28;20292;-31
2023/01/21 04:47:13;;;;;;;55.10;32.33;;;1.50;99.90;;;;;;5068994;28;20741;-31
2023/01/21 04:49:43;;;;;;;56.40;33.27;;;1.50;99.90;;;;;;5070030;28;20195;-31
2023/01/21 04:52:14;;;;;;;55.60;32.47;;;1.60;99.90;;;;;;5067859;28;20242;-32
2023/01/21 04:54:44;;;;;;;55.87;33.63;;;1.50;99.90;;;;;;5067778;28;20219;-31
2023/01/21 04:57:11;;;;;;;57.77;33.03;;;1.50;99.90;;;;;;5067918;28;20243;-32
2023/01/21 04:59:41;;;;;;;54.27;33.10;;;1.50;99.90;;;;;;5069749;28;20302;-31
2023/01/21 05:02:08;;;;;;;56.63;32.87;;;1.50;99.90;;;;;;5068266;28;20269;-32
2023/01/21 05:04:38;;;;;;;54.10;31.53;;;1.50;99.90;;;;;;5069600;28;20290;-32
2023/01/21 05:07:05;;;;;;;54.47;32.90;;;1.50;99.90;;;;;;5069593;28;20716;-32
2023/01/21 05:09:33;;;;;;;56.30;32.03;;;1.50;99.90;;;;;;5051530;28;20195;-32
2023/01/21 05:12:06;;;;;;;52.63;31.87;;;1.50;99.90;;;;;;5056478;28;20278;-32
2023/01/21 05:14:33;;;;;;;56.60;33.23;;;1.40;99.90;;;;;;5063827;28;20202;-32
2023/01/21 05:17:02;;;;;;;58.30;33.60;;;1.40;99.90;;;;;;5068660;28;20626;-32
2023/01/21 05:19:32;;;;;;;56.47;32.40;;;1.40;99.90;;;;;;5069382;28;20249;-32
2023/01/21 05:22:00;;;;;;;55.67;31.27;;;1.40;99.90;;;;;;5052458;28;20239;-32
2023/01/21 05:24:27;;;;;;;58.33;33.23;;;1.40;99.90;;;;;;5062701;28;20278;-32
2023/01/21 05:26:54;;;;;;;53.90;33.63;;;1.40;99.90;;;;;;5069304;28;20249;-32
2023/01/21 05:29:21;;;;;;;60.23;34.57;;;1.50;99.90;;;;;;5069146;28;20252;-31
2023/01/21 05:31:48;;;;;;;56.90;32.20;;;1.50;99.90;;;;;;5054002;28;20269;-31
2023/01/21 05:34:18;;;;;;;62.33;34.47;;;1.50;99.90;;;;;;5062364;28;20203;-32
2023/01/21 05:36:47;;;;;;;57.77;34.20;;;1.50;99.90;;;;;;5068446;28;20234;-32
2023/01/21 05:39:17;;;;;;;61.53;34.97;;;1.40;99.90;;;;;;5068769;28;20227;-32
2023/01/21 05:41:47;;;;;;;59.33;34.33;;;1.40;99.90;;;;;;5054206;28;20245;-32
2023/01/21 05:44:16;;;;;;;59.30;34.50;;;1.40;99.90;;;;;;5061960;28;20195;-32
2023/01/21 05:46:46;;;;;;;57.80;32.77;;;1.40;99.90;;;;;;5065382;28;20755;-32
2023/01/21 05:49:18;;;;;;;59.87;34.13;;;1.30;99.90;;;;;;5051677;28;20251;-32
2023/01/21 05:51:45;;;;;;;59.63;33.80;;;1.40;99.90;;;;;;5060366;28;20267;-32
2023/01/21 05:54:13;;;;;;;56.67;34.30;;;1.30;99.90;;;;;;5066902;28;20607;-32
2023/01/21 05:56:40;;;;;;;59.67;35.97;;;1.30;99.90;;;;;;5067204;28;20217;-32
2023/01/21 05:59:08;;;;;;;58.53;34.00;;;1.30;99.90;;;;;;5058019;28;20206;-32
2023/01/21 06:01:37;;;;;;;60.03;34.67;;;1.30;99.90;;;;;;5053954;28;20787;-32
2023/01/21 06:04:04;;;;;;;59.53;33.10;;;1.30;99.90;;;;;;5058298;28;20772;-32
2023/01/21 06:06:32;;;;;;;61.90;32.13;;;1.30;99.90;;;;;;5062676;28;20192;-32
2023/01/21 06:08:59;;;;;;;61.13;34.33;;;1.30;99.90;;;;;;5061687;28;20296;-32
2023/01/21 06:11:26;;;;;;;55.20;33.43;;;1.30;99.90;;;;;;5063571;28;20212;-32
2023/01/21 06:13:54;;;;;;;57.40;33.80;;;1.30;99.90;;;;;;5062305;28;20215;-32
2023/01/21 06:16:21;;;;;;;56.70;33.47;;;1.30;99.90;;;;;;5065193;28;20210;-32
2023/01/21 06:18:48;;;;;;;61.43;35.33;;;1.30;99.90;;;;;;5065982;28;20214;-32
2023/01/21 06:21:15;;;;;;;59.80;33.70;;;1.40;99.90;;;;;;5059552;28;20220;-32
2023/01/21 06:23:42;;;;;;;63.10;33.83;;;1.40;99.90;;;;;;5062717;28;20261;-32
2023/01/21 06:26:10;;;;;;;61.73;35.47;;;1.40;99.90;;;;;;5065852;28;20280;-32
2023/01/21 06:28:37;;;;;;;64.47;36.57;;;1.30;99.90;;;;;;5064359;28;20274;-31
2023/01/21 06:31:04;;;;;;;59.53;35.73;;;1.30;99.90;;;;;;5064925;28;20634;-32
2023/01/21 06:33:34;;;;;;;63.53;37.17;;;1.30;99.90;;;;;;5049469;28;20215;-32
2023/01/21 06:36:03;;;;;;;61.13;36.97;;;1.30;99.90;;;;;;5067244;28;20306;-32
2023/01/21 06:38:34;;;;;;;63.07;36.57;;;1.30;99.90;;;;;;5062447;28;20203;-32
2023/01/21 06:41:02;;;;;;;62.53;37.20;;;1.30;99.90;;;;;;5057233;28;20191;-32
2023/01/21 06:43:29;;;;;;;68.80;37.17;;;1.30;99.90;;;;;;5064049;28;20219;-32
2023/01/21 06:45:57;;;;;;;64.60;36.83;;;1.30;99.90;;;;;;5064665;28;20637;-32
2023/01/21 06:48:26;;;;;;;60.10;32.97;;;1.30;99.90;;;;;;5065695;28;20293;-32
2023/01/21 06:50:58;;;;;;;71.47;37.03;;;1.30;99.90;;;;;;5066505;28;20729;-32
2023/01/21 06:53:25;;;;;;;60.40;35.50;;;1.20;99.90;;;;;;5066816;28;20263;-32
2023/01/21 06:55:56;;;;;;;62.50;36.00;;;1.30;99.90;;;;;;5065813;28;20269;-32
2023/01/21 06:58:26;;;;;;;61.40;37.43;;;1.30;99.90;;;;;;5056764;28;20678;-32
2023/01/21 07:00:58;;;;;;;64.50;34.73;;;1.30;99.90;;;;;;5053784;28;20287;-32
2023/01/21 07:03:32;;;;;;;65.63;37.70;;;1.30;99.90;;;;;;5057734;28;20210;-32
2023/01/21 07:06:01;;;;;;;65.67;36.10;;;1.30;99.90;;;;;;5058795;28;20229;-32
2023/01/21 07:08:28;;;;;;;64.27;36.37;;;1.30;99.90;;;;;;5057258;28;20615;-32
2023/01/21 07:10:55;;;;;;;64.87;38.47;;;1.20;99.90;;;;;;5064470;28;20204;-32
2023/01/21 07:13:24;;;;;;;66.33;37.13;;;1.20;99.90;;;;;;5063776;28;20204;-32
2023/01/21 07:15:52;;;;;;;72.60;36.87;;;1.20;99.90;;;;;;5053320;28;20221;-32
2023/01/21 07:18:26;;;;;;;68.67;39.27;;;1.20;99.90;;;;;;5061453;28;20678;-32
2023/01/21 07:20:58;;;;;;;67.70;37.33;;;1.10;99.90;;;;;;5065076;28;20685;-32
2023/01/21 07:23:29;;;;;;;71.57;41.07;;;1.10;99.90;;;;;;5062775;28;20243;-32
2023/01/21 07:25:56;;;;;;;65.43;39.10;;;1.10;99.90;;;;;;5064881;28;20773;-32
2023/01/21 07:28:29;;;;;;;67.20;38.47;;;1.10;99.90;;;;;;5063783;28;20671;-32
2023/01/21 07:31:09;;;;;;;71.43;39.73;;;1.10;99.90;;;;;;5065657;28;20211;-32
2023/01/21 07:33:42;;;;;;;68.23;39.63;;;1.10;99.90;;;;;;5057857;28;20207;-32
2023/01/21 07:36:09;;;;;;;68.60;38.13;;;1.00;99.90;;;;;;5065574;28;20646;-32
2023/01/21 07:38:39;;;;;;;69.10;38.57;;;1.00;99.90;;;;;;5065749;28;20704;-32
2023/01/21 07:41:06;;;;;;;67.77;39.03;;;1.00;99.90;;;;;;5064453;28;20214;-32
2023/01/21 07:43:35;;;;;;;68.63;38.37;;;1.00;99.90;;;;;;5061710;28;20224;-32
2023/01/21 07:46:02;;;;;;;65.37;37.37;;;1.00;99.90;;;;;;5064125;28;20207;-32
2023/01/21 07:48:30;;;;;;;71.87;39.50;;;1.00;99.90;;;;;;5062814;28;20199;-32
2023/01/21 07:51:01;;;;;;;75.57;39.43;;;1.00;99.90;;;;;;5058184;28;20212;-32
2023/01/21 07:53:30;;;;;;;74.37;40.00;;;0.90;99.90;;;;;;5063120;28;20335;-32
2023/01/21 07:56:01;;;;;;;71.53;39.17;;;0.90;99.90;;;;;;5066487;28;20256;-32
2023/01/21 07:58:31;;;;;;;68.57;39.67;;;0.90;99.90;;;;;;5062611;28;20272;-32
2023/01/21 08:01:04;;;;;;;71.37;41.10;;;0.90;99.90;;;;;;5064376;28;20226;-32
2023/01/21 08:03:34;;;;;;;74.90;40.93;;;0.80;99.90;;;;;;5061672;28;20308;-32
2023/01/21 08:06:05;;;;;;;70.30;40.33;;;0.80;99.90;;;;;;5065493;28;20219;-32
2023/01/21 08:08:34;;;;;;;77.27;40.97;;;0.80;99.90;;;;;;5058714;28;20206;-32
2023/01/21 08:11:04;;;;;;;74.30;41.73;;;0.80;99.90;;;;;;5065084;28;20211;-32
2023/01/21 08:13:33;;;;;;;64.47;38.67;;;0.80;99.90;;;;;;5063024;28;20211;-32
2023/01/21 08:16:00;;;;;;;66.83;39.07;;;0.80;99.90;;;;;;5061800;28;20212;-32
2023/01/21 08:18:31;;;;;;;73.60;41.07;;;0.80;99.90;;;;;;5062713;28;20208;-32
2023/01/21 08:20:59;;;;;;;70.13;40.43;;;0.90;99.90;;;;;;5042946;28;20303;-32
2023/01/21 08:23:28;;;;;;;75.40;40.33;;;0.90;99.90;;;;;;5058299;28;20820;-32
2023/01/21 08:25:55;;;;;;;70.77;40.20;;;0.90;99.90;;;;;;5047292;28;20200;-32
2023/01/21 08:28:25;;;;;;;70.37;40.37;;;0.80;99.90;;;;;;5047265;28;20202;-32
2023/01/21 08:31:00;;;;;;;74.50;39.87;;;0.80;99.90;;;;;;5060196;28;20199;-32
2023/01/21 08:33:31;;;;;;;66.37;38.33;;;0.80;99.90;;;;;;5063228;28;20222;-32
2023/01/21 08:36:03;;;;;;;77.60;39.80;;;0.80;99.90;;;;;;5063589;28;20218;-33
2023/01/21 08:38:32;;;;;;;69.30;38.77;;;0.80;99.90;;;;;;5051562;28;20235;-32
2023/01/21 08:41:02;;;;;;;74.10;39.37;;;0.80;99.90;;;;;;5045419;28;20294;-32
2023/01/21 08:43:31;;;;;;;75.40;41.10;;;0.80;99.90;;;;;;5047316;28;20263;-32
2023/01/21 08:46:00;;;;;;;72.27;39.37;;;0.80;99.90;;;;;;5060025;28;20207;-32
2023/01/21 08:48:29;;;;;;;76.27;41.40;;;0.80;99.90;;;;;;5056855;28;20210;-32
2023/01/21 08:51:01;;;;;;;71.77;40.57;;;0.80;99.90;;;;;;5057877;28;20203;-32
2023/01/21 08:53:36;;;;;;;76.27;41.47;;;0.80;99.90;;;;;;5047493;28;20578;-32
2023/01/21 08:56:06;;;;;;;69.30;38.77;;;0.80;99.90;;;;;;5058031;28;20634;-32
2023/01/21 08:58:36;;;;;;;78.40;40.20;;;0.80;99.90;;;;;;5058247;28;20611;-32
2023/01/21 09:01:08;;;;;;;70.30;39.63;;;0.90;99.90;;;;;;5056950;28;20204;-32
2023/01/21 09:03:35;;;;;;;71.80;40.23;;;0.90;99.90;;;;;;5058132;28;20319;-32
2023/01/21 09:06:05;;;;;;;75.17;40.43;;;0.90;99.90;;;;;;5059623;28;20216;-32
2023/01/21 09:08:40;;;;;;;70.97;39.53;;;0.90;99.90;;;;;;5060706;28;20241;-32
2023/01/21 09:11:10;;;;;;;70.30;39.03;;;0.90;99.90;;;;;;5063591;28;20671;-32
2023/01/21 09:13:41;;;;;;;71.77;42.37;;;1.00;99.90;;;;;;5057165;28;20223;-32
2023/01/21 09:16:13;;;;;;;75.00;39.47;;;1.10;99.90;;;;;;5077309;28;20207;-32
2023/01/21 09:18:44;;;;;;;67.77;38.53;;;1.00;99.90;;;;;;5059072;28;20665;-32
2023/01/21 09:21:14;;;;;;;77.57;40.17;;;1.10;99.90;;;;;;5058139;28;20660;-32
2023/01/21 09:23:46;;;;;;;79.80;39.17;;;1.00;99.90;;;;;;5056184;28;20235;-32
2023/01/21 09:26:15;;;;;;;71.83;36.93;;;1.00;99.90;;;;;;5060544;28;20199;-32
2023/01/21 09:28:45;;;;;;;77.37;42.03;;;1.10;99.90;;;;;;5061291;28;20273;-32
2023/01/21 09:31:15;;;;;;;70.53;39.47;;;1.00;99.90;;;;;;5064471;28;20242;-32
2023/01/21 09:33:48;;;;;;;77.73;41.43;;;1.00;99.90;;;;;;5065895;28;20207;-32
2023/01/21 09:36:20;;;;;;;71.13;39.33;;;1.00;99.90;;;;;;5080972;28;20211;-32
2023/01/21 09:38:50;;;;;;;66.40;37.13;;;1.10;99.90;;;;;;5062944;28;20207;-32
2023/01/21 09:41:26;;;;;;;70.37;39.77;;;1.10;99.90;;;;;;5067380;28;20208;-32
2023/01/21 09:43:56;;;;;;;69.20;37.40;;;1.20;99.90;;;;;;5057935;28;20227;-32
2023/01/21 09:46:29;;;;;;;67.00;37.53;;;1.20;99.90;;;;;;5080645;28;20675;-32
2023/01/21 09:49:02;;;;;;;72.17;40.10;;;1.30;99.90;;;;;;5064914;28;20208;-32
2023/01/21 09:52:07;;;;;;;71.03;37.30;;;1.30;99.90;;;;;;5061727;28;20670;-32
2023/01/21 09:54:36;;;;;;;78.33;41.30;;;1.40;99.90;;;;;;5065900;28;20567;-32
2023/01/21 09:57:15;;;;;;;72.70;40.37;;;1.40;99.90;;;;;;5060181;28;20195;-32
2023/01/21 10:00:13;;;;;;;73.63;38.00;;;1.40;99.90;;;;;;5059537;28;20310;-32
2023/01/21 10:02:49;;;;;;;67.73;38.90;;;1.50;99.90;;;;;;5061904;28;20281;-32
2023/01/21 10:05:39;;;;;;;65.10;38.83;;;1.50;99.90;;;;;;5060419;28;20200;-32
2023/01/21 10:08:12;;;;;;;70.83;40.67;;;1.50;99.90;;;;;;5059151;28;20265;-32
2023/01/21 10:11:17;;;;;;;73.63;38.90;;;1.50;99.90;;;;;;5065863;28;20664;-32
2023/01/21 10:14:14;;;;;;;66.90;36.70;;;1.60;99.90;;;;;;5064833;28;20302;-32
2023/01/21 10:17:10;;;;;;;63.53;37.77;;;1.60;99.90;;;;;;5066110;28;20328;-32
2023/01/21 10:20:10;;;;;;;71.53;39.20;;;1.60;99.90;;;;;;5060806;28;20592;-32
2023/01/21 10:22:46;;;;;;;75.10;37.67;;;1.70;99.90;;;;;;5057853;28;20215;-32
2023/01/21 10:25:26;;;;;;;73.43;37.77;;;1.70;99.90;;;;;;5066437;28;20580;-32
2023/01/21 10:28:03;;;;;;;72.57;38.10;;;1.70;99.90;;;;;;5065165;28;20476;-32
2023/01/21 10:30:41;;;;;;;70.23;38.23;;;1.70;99.90;;;;;;5064333;28;20203;-32
2023/01/21 10:33:31;;;;;;;75.37;38.87;;;1.70;99.90;;;;;;5066009;28;20280;-32
2023/01/21 10:36:31;;;;;;;75.37;37.77;;;1.70;99.90;;;;;;5066392;28;20208;-32
2023/01/21 10:39:19;;;;;;;69.43;38.27;;;1.80;99.90;;;;;;5066313;28;20860;-32
2023/01/21 10:42:02;;;;;;;72.43;38.57;;;1.80;99.90;;;;;;5063858;28;20685;-32
2023/01/21 10:44:42;;;;;;;69.03;38.63;;;1.90;99.90;;;;;;5059898;28;20349;-31
2023/01/21 10:47:14;;;;;;;71.23;39.43;;;1.90;99.90;;;;;;5062959;28;20568;-32
2023/01/21 10:49:57;;;;;;;75.43;38.53;;;1.90;99.90;;;;;;5062746;28;20662;-32
2023/01/21 10:52:57;;;;;;;74.80;40.57;;;2.00;99.90;;;;;;5061681;28;20320;-32
2023/01/21 10:55:30;;;;;;;76.17;37.47;;;2.00;99.90;;;;;;5061219;28;20218;-32
2023/01/21 10:58:27;;;;;;;69.83;37.30;;;2.10;99.90;;;;;;5066403;28;20680;-32
2023/01/21 11:01:01;;;;;;;69.70;38.03;;;2.10;99.90;;;;;;5059772;28;20311;-32
2023/01/21 11:03:40;;;;;;;77.30;39.80;;;2.10;99.90;;;;;;5063655;28;20234;-32
2023/01/21 11:06:11;;;;;;;65.90;35.67;;;2.10;99.90;;;;;;5062414;28;20199;-32
2023/01/21 11:08:41;;;;;;;68.07;37.87;;;2.20;99.90;;;;;;5056937;28;20203;-32
2023/01/21 11:11:10;;;;;;;72.03;37.77;;;2.20;99.90;;;;;;5065185;28;20234;-32
2023/01/21 11:13:40;;;;;;;74.80;38.97;;;2.20;99.90;;;;;;5060285;28;20705;-32
2023/01/21 11:16:10;;;;;;;79.20;39.30;;;2.20;99.90;;;;;;5061223;28;20727;-32
2023/01/21 11:18:40;;;;;;;70.13;38.37;;;2.20;99.90;;;;;;5064133;28;20324;-32
2023/01/21 11:21:20;;;;;;;73.17;39.07;;;2.20;99.90;;;;;;5080149;28;20318;-32
2023/01/21 11:23:58;;;;;;;67.30;37.17;;;2.20;99.90;;;;;;5062063;28;20215;-32
2023/01/21 11:26:31;;;;;;;70.30;36.53;;;2.20;99.90;;;;;;5061077;28;20246;-32
2023/01/21 11:29:16;;;;;;;74.63;38.33;;;2.30;99.90;;;;;;5060779;28;20250;-32
2023/01/21 11:31:47;;;;;;;72.87;39.33;;;2.30;99.90;;;;;;5064557;28;20196;-32
2023/01/21 11:34:21;;;;;;;75.67;38.87;;;2.30;99.90;;;;;;5061673;28;20203;-32
2023/01/21 11:37:15;;;;;;;72.77;40.67;;;2.30;99.90;;;;;;5064088;28;20625;-32
2023/01/21 11:39:57;;;;;;;73.07;39.77;;;2.30;99.90;;;;;;5054871;28;20214;-32
2023/01/21 11:42:25;;;;;;;71.53;40.33;;;2.40;99.90;;;;;;5063733;28;20667;-32
2023/01/21 11:45:23;;;;;;;68.20;37.60;;;2.40;99.90;;;;;;5061307;28;20269;-32
2023/01/21 11:47:56;;;;;;;78.47;39.83;;;2.40;99.90;;;;;;5066858;28;20494;-32
2023/01/21 11:50:31;;;;;;;72.10;38.43;;;2.50;99.90;;;;;;5058298;28;20195;-32
2023/01/21 11:53:16;;;;;;;83.67;43.03;;;2.50;99.90;;;;;;5063381;28;20714;-31
2023/01/21 11:55:52;;;;;;;83.43;42.83;;;2.50;99.90;;;;;;5065150;28;20215;-32
2023/01/21 11:58:37;;;;;;;86.90;43.53;;;2.50;99.90;;;;;;5064971;28;20672;-32
2023/01/21 12:01:07;;;;;;;77.57;42.80;;;2.50;99.90;;;;;;5058789;28;20231;-32
2023/01/21 12:03:48;;;;;;;88.07;44.87;;;2.50;99.90;;;;;;5060889;28;20795;-32
2023/01/21 12:06:22;;;;;;;81.60;42.57;;;2.50;99.90;;;;;;5062901;28;20196;-32
2023/01/21 12:08:54;;;;;;;79.60;44.07;;;2.50;99.90;;;;;;5061556;28;20758;-32
2023/01/21 12:11:25;;;;;;;81.57;43.50;;;2.40;99.90;;;;;;5063478;28;20203;-32
2023/01/21 12:14:51;;;;;;;84.80;44.87;;;2.50;99.90;;;;;;5060317;28;20215;-32
2023/01/21 12:17:45;;;;;;;87.00;45.43;;;2.40;99.90;;;;;;5081232;28;20303;-32
2023/01/21 12:20:20;;;;;;;93.80;46.63;;;2.50;99.90;;;;;;5053649;28;20665;-32
2023/01/21 12:23:24;;;;;;;87.07;44.77;;;2.40;99.90;;;;;;5059321;28;20314;-32
2023/01/21 12:26:02;;;;;;;93.27;46.40;;;2.30;99.90;;;;;;5056943;28;20254;-32
2023/01/21 12:28:39;;;;;;;94.07;47.67;;;2.20;99.90;;;;;;5064118;28;20206;-32
2023/01/21 12:31:20;;;;;;;94.00;46.03;;;2.20;99.90;;;;;;5062138;28;20224;-32
2023/01/21 12:33:59;;;;;;;88.40;44.63;;;2.20;99.90;;;;;;5058899;28;20206;-32
2023/01/21 12:36:54;;;;;;;79.17;39.90;;;2.20;99.90;;;;;;5077036;28;20202;-32
2023/01/21 12:39:36;;;;;;;87.03;42.13;;;2.10;99.90;;;;;;5064115;28;20219;-32
2023/01/21 12:42:10;;;;;;;82.07;39.67;;;2.10;99.90;;;;;;5063106;28;20584;-32
2023/01/21 12:44:49;;;;;;;83.83;39.33;;;1.80;99.90;;;;;;5059616;28;20273;-32
2023/01/21 12:47:41;;;;;;;83.90;40.53;;;1.80;99.90;;;;;;5060687;28;20219;-31
2023/01/21 12:50:25;;;;;;;80.57;41.63;;;1.80;99.90;;;;;;5062268;28;20273;-32
2023/01/21 12:53:15;;;;;;;85.40;41.97;;;1.80;99.90;;;;;;5052306;28;20320;-32
2023/01/21 12:56:00;;;;;;;71.37;37.07;;;1.70;99.90;;;;;;5075110;28;20306;-32
2023/01/21 12:58:33;;;;;;;77.33;35.07;;;1.70;99.90;;;;;;5060757;28;20204;-32
2023/01/21 13:01:09;;;;;;;78.57;39.70;;;1.70;99.90;;;;;;5057086;28;20206;-32
2023/01/21 13:03:51;;;;;;;74.63;38.43;;;1.70;99.90;;;;;;5062709;28;20216;-32
2023/01/21 13:06:38;;;;;;;73.60;37.33;;;1.80;99.90;;;;;;5060007;28;20218;-32
2023/01/21 13:10:11;;;;;;;79.50;38.67;;;1.80;99.90;;;;;;5061394;28;20202;-32
2023/01/21 13:12:45;;;;;;;76.37;37.17;;;1.90;99.90;;;;;;5076021;28;20304;-32
2023/01/21 13:15:22;;;;;;;78.33;34.53;;;1.80;99.90;;;;;;5067794;28;20215;-32